Time;durP1;ratioP1;P1;durP2;ratioP2;P2;SDS_P1;SDS_P2;PMS_P1;PMS_P2;Temp;Humidity;BMP_temperature;BMP_pressure;BME280_temperature;BME280_humidity;BME280_pressure;Samples;Min_cycle;Max_cycle;Signal;HPM_P1;HPM_P2
2024/01/11 00:02:08;;;;;;;23.30;11.40;;;;;;;-4.29;71.84;99253.98;105069;1270;61052;-28
2024/01/11 00:04:36;;;;;;;32.60;14.20;;;;;;;-4.38;72.34;99253.78;105021;1263;71060;-28
2024/01/11 00:14:41;;;;;;;23.90;10.60;;;;;;;-4.15;72.37;99239.83;102724;1292;600190;-27
2024/01/11 00:17:09;;;;;;;23.60;12.00;;;;;;;-4.16;72.18;99237.30;105095;1266;61126;-28
2024/01/11 00:19:37;;;;;;;25.40;13.90;;;;;;;-4.43;74.04;99236.75;104887;1269;61184;-28
2024/01/11 00:22:05;;;;;;;23.40;11.10;;;;;;;-4.66;75.56;99233.90;104776;1264;71679;-28
2024/01/11 00:32:33;;;;;;;28.70;13.00;;;;;;;-4.12;76.17;99220.61;102578;1295;615007;-28
2024/01/11 00:35:00;;;;;;;19.00;10.60;;;;;;;-4.18;76.11;99220.89;105166;1269;61202;-27
2024/01/11 00:37:26;;;;;;;26.10;11.20;;;;;;;-4.42;76.56;99215.20;105182;1269;61191;-27
2024/01/11 00:39:53;;;;;;;24.00;12.60;;;;;;;-4.58;76.97;99219.04;105103;1269;72178;-29
2024/01/11 00:42:20;;;;;;;21.70;9.50;;;;;;;-4.70;77.78;99220.08;104765;1266;74397;-27
2024/01/11 00:44:47;;;;;;;27.80;13.10;;;;;;;-4.23;77.06;99220.13;104990;1264;191678;-28
2024/01/11 00:47:14;;;;;;;17.20;10.40;;;;;;;-3.96;75.27;99214.70;105181;1262;61076;-27
2024/01/11 00:49:42;;;;;;;19.30;10.10;;;;;;;-3.86;74.54;99215.02;105076;1264;61169;-27
2024/01/11 00:52:09;;;;;;;22.20;10.70;;;;;;;-4.13;74.94;99205.53;104903;1264;72190;-28
2024/01/11 00:54:36;;;;;;;20.40;11.50;;;;;;;-4.35;75.59;99203.55;105065;1264;74342;-28
2024/01/11 00:57:04;;;;;;;26.50;12.40;;;;;;;-4.56;75.92;99198.33;104943;1264;72416;-27
2024/01/11 00:59:31;;;;;;;19.30;9.40;;;;;;;-4.69;77.13;99205.34;105124;1264;61100;-27
2024/01/11 01:01:58;;;;;;;23.00;11.70;;;;;;;-4.34;75.82;99197.42;105241;1267;62766;-28
2024/01/11 01:04:25;;;;;;;24.10;12.10;;;;;;;-4.07;73.63;99185.41;105102;1270;72357;-28
2024/01/11 01:06:52;;;;;;;20.40;10.80;;;;;;;-4.01;72.79;99185.30;105232;1264;74429;-28
2024/01/11 01:09:19;;;;;;;35.00;13.50;;;;;;;-4.10;72.82;99177.84;105173;1266;72735;-28
2024/01/11 01:11:46;;;;;;;19.40;8.40;;;;;;;-4.24;73.39;99176.74;105163;1264;61055;-27
2024/01/11 01:14:13;;;;;;;25.80;9.40;;;;;;;-4.41;73.38;99172.98;105193;1265;61156;-27
2024/01/11 01:16:40;;;;;;;21.80;10.40;;;;;;;-4.59;73.60;99161.60;105185;1264;73076;-28
2024/01/11 01:19:07;;;;;;;32.20;12.50;;;;;;;-4.67;73.81;99153.61;105159;1266;74358;-27
2024/01/11 01:21:34;;;;;;;22.70;11.60;;;;;;;-4.18;71.62;99148.31;105149;1266;72431;-27
2024/01/11 01:24:00;;;;;;;22.70;11.80;;;;;;;-3.93;69.76;99146.79;105200;1264;60995;-28
2024/01/11 01:26:27;;;;;;;20.90;7.80;;;;;;;-3.99;69.16;99153.37;105283;1269;61182;-28
2024/01/11 01:28:54;;;;;;;19.40;9.80;;;;;;;-4.17;69.64;99162.88;105198;1264;73054;-28
2024/01/11 01:31:22;;;;;;;24.40;12.50;;;;;;;-4.33;69.68;99158.94;105238;1269;74397;-28
2024/01/11 01:33:49;;;;;;;27.80;12.70;;;;;;;-4.56;70.23;99157.67;105216;1267;72683;-28
2024/01/11 01:36:16;;;;;;;18.60;11.20;;;;;;;-4.67;70.79;99151.75;105554;1258;61042;-28
2024/01/11 01:38:43;;;;;;;29.30;13.20;;;;;;;-4.69;70.76;99136.89;105605;1260;61169;-28
2024/01/11 01:41:10;;;;;;;16.90;8.60;;;;;;;-4.70;70.94;99133.34;105572;1260;73013;-28
2024/01/11 01:43:37;;;;;;;14.30;8.70;;;;;;;-4.10;69.05;99133.91;105639;1257;74340;-28
2024/01/11 01:46:05;;;;;;;20.80;9.90;;;;;;;-3.74;67.39;99134.02;105639;1262;72509;-28
2024/01/11 01:48:32;;;;;;;23.30;10.40;;;;;;;-3.87;67.00;99126.16;105612;1262;61195;-28
2024/01/11 01:50:59;;;;;;;24.30;11.70;;;;;;;-4.05;67.47;99122.79;105634;1257;61144;-29
2024/01/11 01:53:28;;;;;;;23.60;11.10;;;;;;;-4.21;67.81;99118.38;105418;1258;73040;-28
2024/01/11 01:55:55;;;;;;;25.30;11.20;;;;;;;-4.40;67.84;99115.18;105389;1262;74298;-31
2024/01/11 01:58:22;;;;;;;27.70;11.70;;;;;;;-4.53;68.40;99112.20;105429;1257;72509;-28
2024/01/11 02:00:49;;;;;;;31.00;12.30;;;;;;;-4.63;67.86;99098.48;105511;1257;61068;-28
2024/01/11 02:03:16;;;;;;;21.20;10.60;;;;;;;-4.68;68.40;99097.55;105552;1261;61178;-28
2024/01/11 02:05:43;;;;;;;18.20;9.80;;;;;;;-4.46;67.79;99099.02;105426;1258;72066;-28
2024/01/11 02:08:12;;;;;;;21.30;10.60;;;;;;;-3.85;65.56;99092.17;105633;1260;74359;-28
2024/01/11 02:10:39;;;;;;;37.70;15.20;;;;;;;-3.71;63.89;99084.58;105546;1263;72298;-28
2024/01/11 02:13:06;;;;;;;30.80;13.20;;;;;;;-3.88;64.21;99081.21;105510;1259;61045;-28
2024/01/11 02:15:37;;;;;;;19.60;11.00;;;;;;;-3.94;64.06;99072.35;105535;1258;61038;-28
2024/01/11 02:18:04;;;;;;;33.10;15.10;;;;;;;-4.15;63.87;99052.62;105627;1263;73028;-29
2024/01/11 02:20:31;;;;;;;24.30;13.10;;;;;;;-4.33;64.08;99056.20;105349;1266;74312;-28
2024/01/11 02:23:05;;;;;;;28.10;12.80;;;;;;;-4.35;63.70;99047.77;105601;1263;72292;-28
2024/01/11 02:25:32;;;;;;;23.40;11.80;;;;;;;-4.41;63.95;99045.86;105540;1272;61182;-28
2024/01/11 02:27:59;;;;;;;21.70;9.90;;;;;;;-4.53;63.61;99043.90;105928;1252;61250;-28
2024/01/11 02:30:26;;;;;;;28.00;13.10;;;;;;;-4.56;63.43;99041.59;105684;1260;71991;-28
2024/01/11 02:32:53;;;;;;;33.40;14.90;;;;;;;-4.60;63.55;99023.70;105884;1257;74560;-28
2024/01/11 02:35:21;;;;;;;23.50;11.70;;;;;;;-4.69;63.27;99014.56;105904;1256;72628;-27
2024/01/11 02:37:47;;;;;;;25.80;11.80;;;;;;;-4.74;63.47;99007.72;105823;1257;61039;-28
2024/01/11 02:40:15;;;;;;;25.10;13.20;;;;;;;-4.62;62.92;99008.48;105719;1260;61241;-28
2024/01/11 02:42:42;;;;;;;36.40;15.80;;;;;;;-4.05;61.95;99004.59;105736;1257;72778;-27
2024/01/11 02:45:10;;;;;;;28.50;13.90;;;;;;;-3.67;60.54;99016.94;105820;1257;74381;-28
2024/01/11 02:47:36;;;;;;;30.60;11.80;;;;;;;-3.60;60.74;99009.15;105530;1260;72693;-28
2024/01/11 02:50:06;;;;;;;30.10;14.70;;;;;;;-3.75;60.91;98992.87;105754;1257;61135;-28
2024/01/11 02:52:34;;;;;;;24.90;11.40;;;;;;;-3.89;61.34;98997.61;105698;1260;61164;-27
2024/01/11 02:55:01;;;;;;;28.60;13.50;;;;;;;-3.96;61.35;98993.36;105883;1256;73115;-27
2024/01/11 02:57:28;;;;;;;29.30;15.10;;;;;;;-4.10;62.01;98997.40;105893;1254;74618;-27
2024/01/11 02:59:55;;;;;;;25.40;13.20;;;;;;;-4.27;62.46;98988.95;105858;1255;72571;-28
2024/01/11 03:02:22;;;;;;;25.80;13.30;;;;;;;-4.34;62.59;98985.20;105806;1256;61163;-27
2024/01/11 03:04:49;;;;;;;28.20;14.00;;;;;;;-4.26;62.52;98977.91;105693;1252;61052;-27
2024/01/11 03:07:16;;;;;;;40.40;15.60;;;;;;;-4.33;62.63;98970.45;105910;1260;73017;-27
2024/01/11 03:09:43;;;;;;;27.90;15.30;;;;;;;-4.41;63.12;98958.75;105877;1257;74333;-27
2024/01/11 03:12:10;;;;;;;32.90;13.40;;;;;;;-4.34;63.02;98946.90;105940;1252;72714;-27
2024/01/11 03:14:37;;;;;;;23.40;12.90;;;;;;;-4.36;63.03;98942.69;105694;1254;61036;-27
2024/01/11 03:17:04;;;;;;;25.70;12.30;;;;;;;-4.29;63.19;98949.33;105518;1254;61150;-27
2024/01/11 03:19:32;;;;;;;28.30;12.50;;;;;;;-3.69;62.11;98941.48;105723;1254;73549;-27
2024/01/11 03:22:03;;;;;;;27.10;11.10;;;;;;;-3.35;60.63;98935.02;105889;1256;74812;-28
2024/01/11 03:24:30;;;;;;;34.00;14.30;;;;;;;-3.26;60.27;98931.73;105821;1257;73095;-27
2024/01/11 03:26:57;;;;;;;32.30;14.00;;;;;;;-3.47;60.76;98926.17;105799;1254;61064;-27
2024/01/11 03:29:24;;;;;;;25.30;13.60;;;;;;;-3.67;61.03;98924.98;105793;1257;61156;-27
2024/01/11 03:31:51;;;;;;;28.00;14.30;;;;;;;-3.84;61.40;98922.67;105916;1257;73134;-27
2024/01/11 03:34:17;;;;;;;30.70;13.70;;;;;;;-3.86;61.81;98917.14;105812;1257;74269;-27
2024/01/11 03:36:45;;;;;;;24.50;11.30;;;;;;;-3.93;62.45;98908.30;105893;1259;72405;-27
2024/01/11 03:39:12;;;;;;;29.00;14.00;;;;;;;-3.92;62.75;98897.58;105653;1252;61075;-27
2024/01/11 03:41:44;;;;;;;29.00;13.00;;;;;;;-4.08;63.12;98893.25;105592;1257;61173;-27
2024/01/11 03:44:11;;;;;;;34.00;16.60;;;;;;;-4.02;63.23;98879.19;105548;1260;73060;-27
2024/01/11 03:46:38;;;;;;;27.40;13.70;;;;;;;-4.06;63.36;98869.30;105694;1257;74420;-27
2024/01/11 03:49:07;;;;;;;28.30;14.30;;;;;;;-4.04;63.41;98866.52;105767;1254;72404;-27
2024/01/11 03:51:34;;;;;;;32.60;14.80;;;;;;;-4.00;64.06;98856.58;105870;1255;61803;-27
2024/01/11 03:54:01;;;;;;;21.60;10.40;;;;;;;-3.39;62.51;98851.95;105896;1256;61131;-28
2024/01/11 03:56:28;;;;;;;24.10;11.70;;;;;;;-3.06;61.29;98854.08;105950;1254;73041;-27
2024/01/11 03:58:55;;;;;;;23.20;11.80;;;;;;;-3.04;61.34;98855.39;105903;1257;74362;-27
2024/01/11 04:01:22;;;;;;;26.20;12.60;;;;;;;-3.15;61.83;98842.63;105904;1254;72635;-27
2024/01/11 04:03:49;;;;;;;20.20;10.80;;;;;;;-3.30;62.26;98844.23;105910;1254;61033;-27
2024/01/11 04:06:23;;;;;;;27.80;12.90;;;;;;;-3.40;62.94;98841.79;105932;1257;61121;-27
2024/01/11 04:08:50;;;;;;;31.10;14.90;;;;;;;-3.60;63.64;98811.11;105897;1261;71455;-27
2024/01/11 04:11:17;;;;;;;26.40;11.60;;;;;;;-3.65;64.52;98809.03;105847;1257;74405;-27
2024/01/11 04:13:44;;;;;;;28.10;12.60;;;;;;;-3.67;64.75;98803.16;105854;1257;72604;-27
2024/01/11 04:16:11;;;;;;;27.60;14.50;;;;;;;-3.66;65.26;98806.67;105837;1257;61100;-28
2024/01/11 04:18:38;;;;;;;26.40;12.10;;;;;;;-3.69;66.01;98790.64;105805;1257;61164;-27
2024/01/11 04:21:05;;;;;;;23.70;12.40;;;;;;;-3.03;64.02;98779.92;105861;1257;73002;-27
2024/01/11 04:23:32;;;;;;;30.00;13.40;;;;;;;-2.69;63.24;98787.09;105894;1254;74393;-27
2024/01/11 04:25:59;;;;;;;19.20;10.60;;;;;;;-2.69;62.65;98768.20;105924;1254;72484;-28
2024/01/11 04:28:26;;;;;;;28.00;13.10;;;;;;;-2.83;62.81;98771.86;105912;1257;61052;-27
2024/01/11 04:30:53;;;;;;;21.10;10.70;;;;;;;-3.11;63.71;98758.27;105922;1256;61511;-27
2024/01/11 04:33:20;;;;;;;23.50;11.10;;;;;;;-3.24;63.95;98748.14;105902;1257;73186;-27
2024/01/11 04:35:47;;;;;;;21.10;11.40;;;;;;;-3.50;64.34;98748.04;105851;1254;74225;-27
2024/01/11 04:38:14;;;;;;;25.30;12.30;;;;;;;-3.68;64.96;98750.58;105888;1254;72710;-27
2024/01/11 04:40:41;;;;;;;29.10;12.20;;;;;;;-3.80;65.13;98761.23;105909;1257;61077;-27
2024/01/11 04:43:08;;;;;;;26.60;11.80;;;;;;;-3.91;65.63;98758.32;105629;1253;61150;-27
2024/01/11 04:45:36;;;;;;;24.00;11.10;;;;;;;-4.04;65.87;98754.27;105841;1254;73765;-27
2024/01/11 04:48:03;;;;;;;19.20;9.80;;;;;;;-3.71;65.09;98747.09;105728;1256;74607;-31
2024/01/11 04:50:30;;;;;;;27.30;12.80;;;;;;;-3.33;63.47;98750.10;105683;1254;72614;-27
2024/01/11 04:52:57;;;;;;;19.50;9.80;;;;;;;-3.29;63.02;98741.64;105906;1257;61185;-28
2024/01/11 04:55:24;;;;;;;22.50;10.80;;;;;;;-3.16;62.67;98749.58;105714;1255;61024;-27
2024/01/11 04:57:51;;;;;;;21.20;11.90;;;;;;;-3.34;62.91;98741.45;105872;1254;73620;-27
2024/01/11 05:00:18;;;;;;;21.20;8.70;;;;;;;-3.50;63.34;98742.44;105845;1260;74191;-27
2024/01/11 05:02:45;;;;;;;21.10;10.50;;;;;;;-3.53;63.64;98732.69;105751;1257;72628;-28
2024/01/11 05:05:12;;;;;;;23.70;11.50;;;;;;;-3.69;63.88;98721.06;105878;1252;61022;-27
2024/01/11 05:07:39;;;;;;;25.20;10.40;;;;;;;-3.70;64.25;98735.20;105844;1256;61178;-27
2024/01/11 05:10:07;;;;;;;27.40;10.50;;;;;;;-3.73;64.28;98746.80;105843;1257;73616;-28
2024/01/11 05:12:34;;;;;;;19.80;10.30;;;;;;;-3.80;64.88;98740.89;105687;1260;74262;-27
2024/01/11 05:15:01;;;;;;;21.60;10.90;;;;;;;-3.82;65.17;98750.28;105894;1256;72689;-27
2024/01/11 05:17:28;;;;;;;21.00;8.20;;;;;;;-3.42;64.72;98752.89;105937;1255;60981;-27
2024/01/11 05:19:55;;;;;;;26.00;12.40;;;;;;;-3.04;63.40;98753.98;105796;1258;61098;-28
2024/01/11 05:22:22;;;;;;;20.60;10.50;;;;;;;-3.11;62.80;98756.39;105706;1257;73621;-27
2024/01/11 05:24:49;;;;;;;27.60;11.50;;;;;;;-3.23;63.15;98753.02;105840;1257;74105;-27
2024/01/11 05:27:16;;;;;;;27.00;13.10;;;;;;;-3.38;63.13;98734.77;105665;1257;72452;-27
2024/01/11 05:29:43;;;;;;;24.90;10.60;;;;;;;-3.64;63.72;98738.75;105820;1254;61049;-30
2024/01/11 05:32:10;;;;;;;25.00;10.50;;;;;;;-3.74;64.12;98721.88;105800;1266;61122;-28
2024/01/11 05:34:37;;;;;;;26.60;12.20;;;;;;;-3.74;64.48;98727.48;105868;1254;73861;-27
2024/01/11 05:37:05;;;;;;;21.00;10.00;;;;;;;-3.85;64.99;98730.85;105838;1257;74319;-27
2024/01/11 05:39:32;;;;;;;21.40;10.30;;;;;;;-3.92;65.01;98724.27;105899;1257;72667;-27
2024/01/11 05:41:59;;;;;;;24.60;11.90;;;;;;;-3.95;65.09;98721.45;105884;1252;61173;-27
2024/01/11 05:44:25;;;;;;;26.70;11.50;;;;;;;-3.87;65.36;98724.30;105917;1256;61159;-28
2024/01/11 05:46:52;;;;;;;15.10;8.50;;;;;;;-3.43;63.88;98727.10;105911;1255;73738;-27
2024/01/11 05:49:19;;;;;;;30.10;10.70;;;;;;;-3.16;62.48;98701.17;105901;1257;74889;-28
2024/01/11 05:51:46;;;;;;;21.70;10.80;;;;;;;-3.15;62.46;98720.87;105891;1254;73156;-27
2024/01/11 05:54:12;;;;;;;27.10;11.40;;;;;;;-3.34;62.76;98705.13;105850;1254;61058;-27
2024/01/11 05:56:39;;;;;;;17.90;9.80;;;;;;;-3.62;63.39;98695.41;105963;1258;61157;-27
2024/01/11 05:59:06;;;;;;;21.40;10.20;;;;;;;-3.66;63.99;98710.81;105871;1254;73709;-28
2024/01/11 06:01:40;;;;;;;21.00;10.00;;;;;;;-3.90;64.53;98698.77;105897;1257;74605;-27
2024/01/11 06:04:07;;;;;;;16.80;8.10;;;;;;;-3.92;64.88;98692.38;105707;1257;72460;-28
2024/01/11 06:06:34;;;;;;;22.80;11.60;;;;;;;-3.83;64.73;98689.40;105676;1254;61141;-27
2024/01/11 06:09:04;;;;;;;25.40;12.60;;;;;;;-3.95;65.43;98701.80;105946;1257;61582;-27
2024/01/11 06:11:31;;;;;;;23.10;10.30;;;;;;;-4.04;65.79;98704.90;105921;1257;75164;-27
2024/01/11 06:13:58;;;;;;;20.50;10.50;;;;;;;-3.58;64.56;98698.53;105874;1255;74936;-27
2024/01/11 06:16:25;;;;;;;17.80;9.60;;;;;;;-3.18;62.93;98709.58;105887;1254;72698;-27
2024/01/11 06:18:51;;;;;;;19.50;10.00;;;;;;;-3.39;63.28;98702.04;105770;1254;61078;-27
2024/01/11 06:21:18;;;;;;;30.00;13.90;;;;;;;-3.34;62.79;98704.10;105562;1256;61089;-27
2024/01/11 06:23:45;;;;;;;17.10;8.80;;;;;;;-3.51;63.60;98700.87;105864;1254;73884;-27
2024/01/11 06:26:13;;;;;;;24.60;11.00;;;;;;;-3.48;63.62;98700.10;105676;1254;74317;-28
2024/01/11 06:28:40;;;;;;;22.50;10.20;;;;;;;-3.57;64.36;98704.45;105610;1256;72694;-27
2024/01/11 06:31:06;;;;;;;26.50;13.60;;;;;;;-3.83;64.67;98700.25;105813;1257;61230;-27
2024/01/11 06:33:36;;;;;;;36.40;12.30;;;;;;;-3.94;65.45;98708.05;105779;1257;61109;-27
2024/01/11 06:36:09;;;;;;;27.00;13.70;;;;;;;-3.95;65.97;98714.50;105848;1257;72569;-28
2024/01/11 06:38:36;;;;;;;23.20;11.10;;;;;;;-4.19;66.27;98703.79;105684;1260;74377;-27
2024/01/11 06:41:04;;;;;;;26.60;12.20;;;;;;;-3.86;65.98;98708.14;105747;1260;72679;-27
2024/01/11 06:43:31;;;;;;;27.00;12.10;;;;;;;-3.39;64.68;98700.52;105538;1253;61058;-27
2024/01/11 06:46:03;;;;;;;27.90;12.50;;;;;;;-3.45;64.62;98709.52;105730;1257;61058;-27
2024/01/11 06:48:31;;;;;;;26.20;11.10;;;;;;;-3.43;64.90;98734.42;105892;1254;73693;-27
2024/01/11 06:50:58;;;;;;;28.40;12.30;;;;;;;-3.57;65.28;98716.31;105726;1257;74340;-29
2024/01/11 06:53:28;;;;;;;30.80;13.30;;;;;;;-3.76;65.52;98688.36;105859;1254;73898;-28
2024/01/11 06:55:55;;;;;;;25.70;11.40;;;;;;;-3.91;66.67;98704.56;105921;1254;61057;-27
2024/01/11 06:58:22;;;;;;;29.40;14.50;;;;;;;-3.84;66.66;98713.01;105829;1257;61141;-27
2024/01/11 07:00:49;;;;;;;29.80;12.70;;;;;;;-4.03;67.02;98701.67;105823;1256;73867;-27
2024/01/11 07:03:17;;;;;;;26.20;13.50;;;;;;;-4.14;67.37;98697.04;105901;1256;74877;-27
2024/01/11 07:05:44;;;;;;;19.40;10.20;;;;;;;-4.03;67.31;98697.92;105648;1256;72205;-27
2024/01/11 07:08:11;;;;;;;20.60;10.90;;;;;;;-3.28;64.81;98680.66;105552;1256;61153;-28
2024/01/11 07:10:38;;;;;;;23.10;10.20;;;;;;;-3.39;64.34;98678.29;105656;1252;61164;-27
2024/01/11 07:13:06;;;;;;;29.90;14.00;;;;;;;-3.09;63.47;98666.31;105665;1254;73423;-27
2024/01/11 07:15:33;;;;;;;23.50;11.60;;;;;;;-3.25;63.75;98662.23;105919;1256;74809;-27
2024/01/11 07:18:00;;;;;;;19.00;10.60;;;;;;;-3.42;64.12;98657.83;105847;1256;73782;-27
2024/01/11 07:20:28;;;;;;;25.30;12.50;;;;;;;-3.46;64.58;98672.20;105757;1253;61049;-27
2024/01/11 07:22:54;;;;;;;30.60;13.90;;;;;;;-3.66;65.24;98678.56;105723;1257;61089;-27
2024/01/11 07:25:21;;;;;;;28.20;13.40;;;;;;;-3.92;65.87;98676.95;105831;1254;74040;-27
2024/01/11 07:27:48;;;;;;;24.80;13.00;;;;;;;-4.16;66.43;98682.50;105945;1256;74269;-27
2024/01/11 07:30:15;;;;;;;30.00;13.60;;;;;;;-4.10;67.07;98681.15;105894;1254;73004;-27
2024/01/11 07:32:42;;;;;;;34.90;12.70;;;;;;;-3.99;67.56;98671.01;105546;1256;61909;-28
2024/01/11 07:35:10;;;;;;;28.70;13.50;;;;;;;-3.60;66.82;98673.81;105675;1257;61195;-27
2024/01/11 07:37:41;;;;;;;28.70;12.90;;;;;;;-3.43;65.57;98667.89;105861;1254;73854;-27
2024/01/11 07:40:10;;;;;;;26.50;14.40;;;;;;;-3.59;66.15;98666.50;105865;1256;74321;-28
2024/01/11 07:42:38;;;;;;;28.30;14.50;;;;;;;-3.76;67.28;98664.98;105726;1260;72786;-28
2024/01/11 07:45:13;;;;;;;29.60;14.70;;;;;;;-3.80;67.61;98663.52;105721;1254;61087;-27
2024/01/11 07:47:40;;;;;;;35.40;15.50;;;;;;;-3.95;68.34;98654.46;105866;1257;61260;-27
2024/01/11 07:50:09;;;;;;;26.20;14.00;;;;;;;-4.03;68.60;98642.66;105708;1254;74235;-28
2024/01/11 07:52:36;;;;;;;28.10;12.20;;;;;;;-4.17;69.40;98651.67;105634;1260;72953;-27
2024/01/11 07:55:07;;;;;;;31.30;13.90;;;;;;;-4.15;69.78;98652.98;105868;1257;72708;-27
2024/01/11 07:57:35;;;;;;;23.20;11.30;;;;;;;-3.87;69.54;98655.92;105644;1253;61056;-27
2024/01/11 08:00:03;;;;;;;24.80;12.00;;;;;;;-3.39;67.70;98660.63;105843;1256;61138;-27
2024/01/11 08:02:39;;;;;;;36.10;15.30;;;;;;;-3.56;68.07;98656.02;105813;1254;73778;-27
2024/01/11 08:05:07;;;;;;;36.90;16.10;;;;;;;-3.78;69.41;98642.11;105846;1254;75812;-27
2024/01/11 08:07:35;;;;;;;39.40;17.00;;;;;;;-4.04;71.20;98660.32;105739;1254;72951;-27
2024/01/11 08:10:04;;;;;;;32.70;14.60;;;;;;;-3.93;70.87;98652.19;105704;1257;61045;-27
2024/01/11 08:12:31;;;;;;;35.10;16.00;;;;;;;-4.16;72.05;98658.43;105714;1261;61279;-27
2024/01/11 08:14:58;;;;;;;28.10;16.00;;;;;;;-4.30;72.93;98646.77;105913;1257;72843;-27
2024/01/11 08:17:26;;;;;;;36.50;15.20;;;;;;;-3.72;71.31;98662.11;105893;1254;73887;-27
2024/01/11 08:19:55;;;;;;;21.50;11.20;;;;;;;-3.47;70.24;98659.52;105743;1254;74127;-27
2024/01/11 08:22:23;;;;;;;30.70;13.90;;;;;;;-3.38;69.70;98663.14;105942;1255;61146;-27
2024/01/11 08:24:54;;;;;;;29.50;14.20;;;;;;;-3.64;70.75;98659.52;105837;1252;61156;-27
2024/01/11 08:27:22;;;;;;;29.60;14.90;;;;;;;-3.99;72.07;98646.94;105875;1254;73800;-27
2024/01/11 08:29:49;;;;;;;36.10;16.30;;;;;;;-4.29;74.15;98650.30;105924;1254;75763;-27
2024/01/11 08:32:17;;;;;;;41.10;19.20;;;;;;;-4.43;76.39;98653.38;105942;1254;72763;-27
2024/01/11 08:34:57;;;;;;;34.50;14.20;;;;;;;-3.86;75.16;98640.45;105825;1253;61133;-27
2024/01/11 08:37:25;;;;;;;35.30;14.80;;;;;;;-3.58;73.99;98639.29;105881;1258;61095;-28
2024/01/11 08:39:52;;;;;;;33.80;15.30;;;;;;;-3.82;74.90;98638.82;105938;1256;73839;-27
2024/01/11 08:42:19;;;;;;;25.10;14.60;;;;;;;-3.97;75.53;98644.86;105851;1254;74353;-28
2024/01/11 08:44:47;;;;;;;32.30;15.30;;;;;;;-4.06;75.94;98640.02;105866;1256;72458;-27
2024/01/11 08:47:14;;;;;;;30.80;14.60;;;;;;;-4.03;76.30;98650.27;105715;1255;61140;-27
2024/01/11 08:49:42;;;;;;;20.20;10.10;;;;;;;-3.58;73.65;98653.06;105919;1256;61048;-27
2024/01/11 08:52:09;;;;;;;29.70;13.40;;;;;;;-3.25;71.69;98659.54;105878;1254;74215;-28
2024/01/11 08:54:37;;;;;;;31.50;14.30;;;;;;;-3.46;71.33;98645.02;105857;1257;74314;-27
2024/01/11 08:57:04;;;;;;;27.30;14.90;;;;;;;-3.51;71.70;98648.94;105913;1254;72796;-27
2024/01/11 08:59:31;;;;;;;27.70;13.30;;;;;;;-3.55;71.78;98641.43;105811;1254;61157;-27
2024/01/11 09:01:58;;;;;;;32.30;15.60;;;;;;;-3.76;72.40;98640.02;105869;1257;61086;-27
2024/01/11 09:04:41;;;;;;;19.90;11.60;;;;;;;-3.98;73.18;98639.79;105899;1254;73429;-27
2024/01/11 09:07:08;;;;;;;25.50;14.60;;;;;;;-3.29;71.47;98640.80;105878;1254;74345;-27
2024/01/11 09:09:35;;;;;;;27.00;13.20;;;;;;;-3.01;69.33;98631.94;105911;1254;72626;-27
2024/01/11 09:12:14;;;;;;;23.50;11.30;;;;;;;-3.04;69.03;98630.16;105804;1254;61057;-28
2024/01/11 09:14:41;;;;;;;29.30;15.60;;;;;;;-3.14;69.19;98627.09;105681;1252;61110;-27
2024/01/11 09:17:08;;;;;;;25.10;13.20;;;;;;;-3.38;69.76;98612.06;105871;1254;73721;-27
2024/01/11 09:19:37;;;;;;;25.10;13.10;;;;;;;-3.34;69.71;98609.55;105899;1254;73988;-27
2024/01/11 09:22:04;;;;;;;25.50;13.50;;;;;;;-3.59;70.11;98600.65;105905;1257;72340;-27
2024/01/11 09:24:31;;;;;;;22.90;12.00;;;;;;;-3.78;71.33;98609.86;105898;1254;61185;-27
2024/01/11 09:27:04;;;;;;;17.40;9.90;;;;;;;-3.43;70.52;98609.66;105904;1257;61109;-27
2024/01/11 09:29:31;;;;;;;25.50;13.80;;;;;;;-2.90;68.38;98600.47;105880;1254;73796;-27
2024/01/11 09:31:59;;;;;;;27.80;13.70;;;;;;;-3.04;68.10;98594.82;105873;1254;74871;-27
2024/01/11 09:34:27;;;;;;;29.40;12.50;;;;;;;-3.01;68.01;98595.41;105885;1253;72727;-28
2024/01/11 09:36:58;;;;;;;36.30;16.40;;;;;;;-3.29;68.84;98575.08;105932;1254;61054;-27
2024/01/11 09:39:25;;;;;;;24.60;12.70;;;;;;;-3.36;69.42;98583.14;105781;1254;61274;-27
2024/01/11 09:41:58;;;;;;;35.50;15.40;;;;;;;-3.41;69.49;98573.08;105690;1254;72622;-28
2024/01/11 09:44:28;;;;;;;27.10;13.10;;;;;;;-3.52;70.23;98572.27;105706;1254;73461;-28
2024/01/11 09:46:55;;;;;;;36.70;16.40;;;;;;;-3.73;70.44;98564.07;105666;1255;73142;-27
2024/01/11 09:49:22;;;;;;;29.10;12.90;;;;;;;-3.46;69.87;98559.51;105786;1254;61183;-27
2024/01/11 09:51:50;;;;;;;22.90;12.80;;;;;;;-3.22;69.10;98569.27;105777;1257;61067;-28
2024/01/11 09:54:17;;;;;;;37.80;14.90;;;;;;;-3.00;68.98;98574.98;105795;1254;73788;-27
2024/01/11 09:56:43;;;;;;;30.30;15.20;;;;;;;-3.20;69.28;98558.67;105753;1254;73412;-27
2024/01/11 09:59:11;;;;;;;26.50;13.20;;;;;;;-3.43;69.90;98546.33;105593;1254;71724;-27
2024/01/11 10:01:39;;;;;;;35.60;13.60;;;;;;;-3.36;70.32;98557.52;105923;1254;61176;-27
2024/01/11 10:04:06;;;;;;;33.70;14.60;;;;;;;-3.33;69.95;98557.55;105892;1257;61177;-27
2024/01/11 10:06:36;;;;;;;25.90;14.20;;;;;;;-3.41;70.56;98551.36;105803;1254;74201;-27
2024/01/11 10:09:03;;;;;;;27.60;14.40;;;;;;;-3.40;70.87;98537.23;105931;1254;73865;-28
2024/01/11 10:11:30;;;;;;;29.10;14.60;;;;;;;-2.87;69.32;98535.48;105862;1254;73984;-27
2024/01/11 10:13:59;;;;;;;32.40;16.20;;;;;;;-2.86;68.66;98533.92;105919;1254;61036;-27
2024/01/11 10:16:27;;;;;;;32.70;15.90;;;;;;;-3.09;69.56;98536.55;105948;1254;61127;-27
2024/01/11 10:18:55;;;;;;;32.90;16.50;;;;;;;-3.18;70.13;98533.83;105697;1254;75129;-27
2024/01/11 10:21:23;;;;;;;29.20;14.40;;;;;;;-3.40;71.28;98529.95;105840;1254;73115;-27
2024/01/11 10:23:50;;;;;;;36.00;15.50;;;;;;;-3.38;71.30;98523.27;105934;1253;73869;-28
2024/01/11 10:26:17;;;;;;;30.50;16.00;;;;;;;-3.54;72.50;98515.80;105882;1254;61243;-28
2024/01/11 10:28:45;;;;;;;28.50;14.70;;;;;;;-3.18;71.23;98510.39;105715;1254;61059;-27
2024/01/11 10:31:14;;;;;;;33.40;15.90;;;;;;;-2.80;70.38;98505.52;105910;1254;74304;-27
2024/01/11 10:33:42;;;;;;;29.40;13.30;;;;;;;-2.85;70.06;98497.85;105868;1257;74859;-27
2024/01/11 10:36:10;;;;;;;35.80;17.40;;;;;;;-2.88;70.31;98504.25;105926;1254;72581;-28
2024/01/11 10:38:39;;;;;;;29.00;15.40;;;;;;;-3.01;70.87;98501.48;105703;1254;60988;-27
2024/01/11 10:41:06;;;;;;;36.10;16.40;;;;;;;-3.22;71.89;98495.05;105679;1258;61247;-27
2024/01/11 10:43:37;;;;;;;33.40;16.10;;;;;;;-3.45;72.88;98489.70;105896;1257;72362;-27
2024/01/11 10:46:06;;;;;;;36.40;16.70;;;;;;;-3.21;72.71;98482.16;105693;1256;75939;-27
2024/01/11 10:48:37;;;;;;;30.20;15.10;;;;;;;-2.85;71.66;98492.41;105723;1257;70141;-27
2024/01/11 10:51:05;;;;;;;37.00;18.10;;;;;;;-2.61;70.01;98472.36;105711;1253;61134;-28
2024/01/11 10:53:46;;;;;;;33.10;16.40;;;;;;;-2.63;70.33;98469.90;105752;1259;61182;-27
2024/01/11 10:56:17;;;;;;;32.40;15.50;;;;;;;-2.96;71.44;98465.81;105761;1259;73262;-28
2024/01/11 10:58:45;;;;;;;25.60;15.00;;;;;;;-3.03;72.20;98476.92;105749;1256;74632;-27
2024/01/11 11:01:12;;;;;;;38.30;19.40;;;;;;;-2.89;71.67;98455.38;105715;1254;71651;-27
2024/01/11 11:03:43;;;;;;;33.50;15.90;;;;;;;-3.12;72.44;98449.92;105806;1254;61751;-27
2024/01/11 11:06:11;;;;;;;29.50;15.70;;;;;;;-2.71;72.15;98460.30;105976;1252;61029;-28
2024/01/11 11:08:39;;;;;;;32.50;16.40;;;;;;;-2.20;70.15;98453.48;105721;1259;73131;-27
2024/01/11 11:11:07;;;;;;;30.80;16.40;;;;;;;-2.24;70.10;98456.05;105916;1254;74148;-27
2024/01/11 11:13:34;;;;;;;37.40;16.80;;;;;;;-2.51;70.83;98456.38;105785;1254;71844;-28
2024/01/11 11:16:03;;;;;;;29.60;13.10;;;;;;;-2.67;71.54;98440.13;105922;1254;61074;-27
2024/01/11 11:18:32;;;;;;;32.90;16.90;;;;;;;-2.71;71.79;98432.78;105872;1256;61604;-27
2024/01/11 11:20:59;;;;;;;29.20;15.30;;;;;;;-2.87;72.93;98435.93;105761;1254;75235;-27
2024/01/11 11:23:26;;;;;;;32.50;14.30;;;;;;;-2.63;72.78;98432.52;105901;1254;73792;-27
2024/01/11 11:25:54;;;;;;;39.00;17.20;;;;;;;-2.51;72.61;98437.52;105895;1253;72178;-27
2024/01/11 11:28:21;;;;;;;29.70;14.00;;;;;;;-2.51;72.62;98428.31;105831;1254;61049;-28